Summerford, Ohio
Current Conditions -  °F | °C
As of 12:55 PM on Tuesday 21 Oct 2014 (Local Time) from KUYF Reporting Station
Overcast Overcast  
Wind Chill: 50°   Ceiling: 2600
Heat Index: 50°   Visibility: 10mi
Dew Point: 43°   Wind: 10mph
Humidity: 76%   Direction: 330°NNW
Pressure: 30.01"   Gusts: 16mph
Location:  39.8789°N, 83.4302°W
Report Text: KUYF 211655Z AUTO 33009G14KT 10SM SCT019 BKN026 OVC050 10/06 A3001 RMK AO2
Loading
Personal Weather Stations






























Interactive Weather Map
Tropical Storm Tracking
New forecast layout! Learn more

10-Day Weather Forecast

Advertisements
Track Severe Weather on mobile